Overton, Nebraska
Current Conditions -  °F | °C
As of 2:15 AM on Sunday 23 Nov 2014 (Local Time) from KLXN Reporting Station
Overcast Overcast  
Wind Chill: 40°   Ceiling: 12000
Heat Index: 40°   Visibility: 10mi
Dew Point: 33°   Wind: 0mph
Humidity: 76%   Direction: NA
Pressure: 29.45"   Gusts: NA
Location:  40.74°N, 99.54°W
Report Text: KLXN 230815Z AUTO 00000KT 10SM OVC120 05/01 A2945 RMK AO2 T00450006
Loading
Personal Weather Stations






























Interactive Weather Map New forecast layout! Learn more

10-Day Weather Forecast

Advertisements
Track Severe Weather on mobile